Time;durP1;ratioP1;P1;durP2;ratioP2;P2;SDS_P1;SDS_P2;PMS_P1;PMS_P2;Temp;Humidity;BMP_temperature;BMP_pressure;BME280_temperature;BME280_humidity;BME280_pressure;Samples;Min_cycle;Max_cycle;Signal;HPM_P1;HPM_P2
2021/04/24 00:00:14;;;;;;;5.72;3.40;;;4.70;99.90;;;;;;495513;239;27955;-72
2021/04/24 00:02:15;;;;;;;7.35;3.80;;;4.60;99.90;;;;;;495540;239;27483;-72
2021/04/24 00:04:17;;;;;;;5.95;3.95;;;4.60;99.90;;;;;;495550;239;27487;-71
2021/04/24 00:06:18;;;;;;;5.97;4.10;;;4.60;99.90;;;;;;495528;239;27386;-71
2021/04/24 00:08:19;;;;;;;3.85;3.37;;;4.50;99.90;;;;;;495489;239;27379;-71
2021/04/24 00:10:20;;;;;;;4.43;3.85;;;4.60;99.90;;;;;;495483;239;27804;-73
2021/04/24 00:12:22;;;;;;;5.03;3.25;;;4.70;99.90;;;;;;495518;239;27451;-72
2021/04/24 00:14:23;;;;;;;5.70;3.65;;;4.70;99.90;;;;;;495545;239;27884;-71
2021/04/24 00:16:24;;;;;;;4.75;3.40;;;4.70;99.90;;;;;;495560;239;27820;-71
2021/04/24 00:18:25;;;;;;;6.60;3.80;;;4.70;99.90;;;;;;495577;239;27962;-71
2021/04/24 00:20:27;;;;;;;6.82;4.25;;;4.70;99.90;;;;;;495554;239;27484;-71
2021/04/24 00:22:28;;;;;;;5.37;3.70;;;4.60;99.90;;;;;;495520;239;27349;-72
2021/04/24 00:24:29;;;;;;;5.25;3.42;;;4.60;99.90;;;;;;495562;239;27412;-72
2021/04/24 00:26:30;;;;;;;5.47;3.67;;;4.60;99.90;;;;;;495571;239;27353;-71
2021/04/24 00:28:32;;;;;;;5.18;3.45;;;4.60;99.90;;;;;;495498;239;27386;-71
2021/04/24 00:30:33;;;;;;;5.53;3.78;;;4.60;99.90;;;;;;495540;239;27927;-72
2021/04/24 00:32:34;;;;;;;5.28;3.90;;;4.50;99.90;;;;;;495557;239;27908;-70
2021/04/24 00:34:35;;;;;;;4.80;3.67;;;4.50;99.90;;;;;;495544;239;27945;-72
2021/04/24 00:36:37;;;;;;;3.58;3.25;;;4.30;99.90;;;;;;495558;239;27440;-72
2021/04/24 00:38:38;;;;;;;7.97;3.95;;;4.10;99.90;;;;;;495521;239;27393;-72
2021/04/24 00:40:39;;;;;;;4.28;3.72;;;4.00;99.90;;;;;;495285;239;27389;-71
2021/04/24 00:42:41;;;;;;;6.95;3.95;;;3.90;99.90;;;;;;495516;239;27378;-71
2021/04/24 00:44:42;;;;;;;4.60;4.20;;;3.80;99.90;;;;;;495480;239;27385;-72
2021/04/24 00:46:43;;;;;;;7.20;3.67;;;3.80;99.90;;;;;;495525;239;27918;-71
2021/04/24 00:48:44;;;;;;;4.87;3.62;;;3.80;99.90;;;;;;495457;239;27951;-72
2021/04/24 00:50:46;;;;;;;7.32;3.97;;;3.80;99.90;;;;;;495488;239;27811;-72
2021/04/24 00:52:47;;;;;;;4.68;3.72;;;3.80;99.90;;;;;;495504;239;27365;-71
2021/04/24 00:54:48;;;;;;;7.72;3.92;;;3.90;99.90;;;;;;495434;239;27462;-73
2021/04/24 00:56:49;;;;;;;5.78;3.90;;;3.90;99.90;;;;;;495503;239;27456;-72
2021/04/24 00:58:51;;;;;;;7.07;4.62;;;3.90;99.90;;;;;;495458;239;27390;-72
2021/04/24 01:00:52;;;;;;;6.95;3.78;;;3.90;99.90;;;;;;495475;239;27358;-71
2021/04/24 01:02:53;;;;;;;4.43;3.20;;;3.90;99.90;;;;;;495491;239;27805;-72
2021/04/24 01:04:54;;;;;;;5.80;3.83;;;3.90;99.90;;;;;;495479;239;27385;-72
2021/04/24 01:06:56;;;;;;;5.10;3.83;;;3.90;99.90;;;;;;495480;239;27436;-71
2021/04/24 01:08:57;;;;;;;3.85;2.83;;;3.90;99.90;;;;;;495490;239;27488;-72
2021/04/24 01:10:58;;;;;;;6.12;3.60;;;3.90;99.90;;;;;;495481;239;27366;-71
2021/04/24 01:12:59;;;;;;;3.33;3.03;;;4.00;99.90;;;;;;495507;239;27414;-72
2021/04/24 01:15:01;;;;;;;4.32;3.62;;;3.90;99.90;;;;;;495485;239;27410;-72
2021/04/24 01:17:02;;;;;;;5.82;3.60;;;3.90;99.90;;;;;;495524;239;27808;-72
2021/04/24 01:19:03;;;;;;;4.68;3.20;;;3.90;99.90;;;;;;495408;239;27876;-73
2021/04/24 01:21:05;;;;;;;5.97;3.87;;;3.80;99.90;;;;;;495498;239;28580;-71
2021/04/24 01:23:06;;;;;;;4.18;3.65;;;3.80;99.90;;;;;;495511;239;27453;-71
2021/04/24 01:25:07;;;;;;;4.85;3.58;;;3.80;99.90;;;;;;495514;239;27382;-73
2021/04/24 01:27:08;;;;;;;5.85;3.42;;;3.70;99.90;;;;;;495528;239;27365;-72
2021/04/24 01:29:09;;;;;;;5.15;3.35;;;3.70;99.90;;;;;;495494;239;27390;-72
2021/04/24 01:31:11;;;;;;;5.10;4.20;;;3.70;99.90;;;;;;495503;239;27373;-71
2021/04/24 01:33:12;;;;;;;4.53;4.10;;;3.70;99.90;;;;;;495469;239;27382;-71
2021/04/24 01:35:13;;;;;;;5.45;3.70;;;3.70;99.90;;;;;;495413;239;27397;-73
2021/04/24 01:37:14;;;;;;;5.80;3.30;;;3.70;99.90;;;;;;495441;239;27353;-71
2021/04/24 01:39:16;;;;;;;7.22;3.22;;;3.70;99.90;;;;;;495440;239;27868;-71
2021/04/24 01:41:17;;;;;;;3.42;3.12;;;3.70;99.90;;;;;;495463;239;28566;-71
2021/04/24 01:43:18;;;;;;;8.20;4.50;;;3.60;99.90;;;;;;495486;239;27833;-73
2021/04/24 01:45:19;;;;;;;5.72;3.40;;;3.60;99.90;;;;;;495486;239;27500;-72
2021/04/24 01:47:21;;;;;;;6.80;4.20;;;3.60;99.90;;;;;;495166;239;27459;-71
2021/04/24 01:49:22;;;;;;;4.82;4.15;;;3.60;99.90;;;;;;495393;239;27393;-72
2021/04/24 01:51:23;;;;;;;4.65;4.07;;;3.50;99.90;;;;;;495460;239;27362;-71
2021/04/24 01:53:24;;;;;;;6.75;3.58;;;3.50;99.90;;;;;;495467;239;27410;-72
2021/04/24 01:55:26;;;;;;;4.35;3.67;;;3.50;99.90;;;;;;495461;239;27533;-74
2021/04/24 01:57:27;;;;;;;4.93;3.87;;;3.50;99.90;;;;;;495454;239;27435;-72
2021/04/24 01:59:28;;;;;;;4.47;3.55;;;3.60;99.90;;;;;;495493;239;27358;-73
2021/04/24 02:01:29;;;;;;;5.93;4.10;;;3.50;99.90;;;;;;495494;239;27397;-72
2021/04/24 02:03:31;;;;;;;6.90;3.75;;;3.50;99.90;;;;;;495426;239;27955;-72
2021/04/24 02:05:32;;;;;;;6.78;3.65;;;3.50;99.90;;;;;;495501;239;27876;-74
2021/04/24 02:07:33;;;;;;;8.90;4.25;;;3.50;99.90;;;;;;495517;239;27799;-72
2021/04/24 02:09:34;;;;;;;5.95;3.40;;;3.50;99.90;;;;;;495496;239;27394;-72
2021/04/24 02:11:36;;;;;;;4.25;3.45;;;3.50;99.90;;;;;;495495;239;27341;-71
2021/04/24 02:13:37;;;;;;;4.10;3.65;;;3.50;99.90;;;;;;495488;239;27396;-71
2021/04/24 02:15:38;;;;;;;7.30;4.50;;;3.50;99.90;;;;;;495453;239;27373;-74
2021/04/24 02:17:39;;;;;;;8.32;4.60;;;3.50;99.90;;;;;;495456;239;27393;-71
2021/04/24 02:19:41;;;;;;;8.45;3.72;;;3.50;99.90;;;;;;495477;239;27484;-72
2021/04/24 02:21:42;;;;;;;7.60;4.70;;;3.50;99.90;;;;;;495552;239;27354;-71
2021/04/24 02:23:43;;;;;;;7.78;3.70;;;3.60;99.90;;;;;;495470;239;27396;-72
2021/04/24 02:25:44;;;;;;;6.12;4.15;;;3.50;99.90;;;;;;495475;239;27456;-73
2021/04/24 02:27:46;;;;;;;6.00;4.47;;;3.60;99.90;;;;;;495477;239;27353;-72
2021/04/24 02:29:47;;;;;;;7.55;4.72;;;3.60;99.90;;;;;;495522;239;27962;-73
2021/04/24 02:31:48;;;;;;;4.65;3.50;;;3.70;99.90;;;;;;495510;239;27812;-72
2021/04/24 02:33:50;;;;;;;5.18;3.95;;;3.70;99.90;;;;;;495482;239;27895;-73
2021/04/24 02:35:51;;;;;;;5.07;3.97;;;3.80;99.90;;;;;;495515;239;27386;-72
2021/04/24 02:37:52;;;;;;;5.60;3.95;;;3.80;99.90;;;;;;495514;239;27435;-72
2021/04/24 02:39:53;;;;;;;5.72;4.20;;;3.70;99.90;;;;;;495495;239;27476;-73
2021/04/24 02:41:54;;;;;;;6.68;4.53;;;3.70;99.90;;;;;;495526;239;27358;-72
2021/04/24 02:43:56;;;;;;;7.72;3.95;;;3.50;99.90;;;;;;495499;239;27405;-71
2021/04/24 02:45:57;;;;;;;7.65;4.40;;;3.40;99.90;;;;;;495498;239;27359;-71
2021/04/24 02:47:58;;;;;;;6.40;4.25;;;3.30;99.90;;;;;;495483;239;27421;-73
2021/04/24 02:49:59;;;;;;;4.82;4.32;;;3.20;99.90;;;;;;495484;239;27390;-73
2021/04/24 02:52:01;;;;;;;8.65;4.32;;;3.00;99.90;;;;;;495465;239;27367;-71
2021/04/24 02:54:02;;;;;;;7.62;4.20;;;2.90;99.90;;;;;;495381;239;27853;-73
2021/04/24 02:56:03;;;;;;;5.22;4.03;;;2.80;99.90;;;;;;495498;239;27918;-72
2021/04/24 02:58:05;;;;;;;9.23;4.70;;;3.00;99.90;;;;;;495506;239;27879;-71
2021/04/24 03:00:09;;;;;;;4.45;3.80;;;3.20;99.90;;;;;;495511;239;27906;-72
2021/04/24 03:02:10;;;;;;;7.00;3.97;;;3.40;99.90;;;;;;495466;239;27587;-72
2021/04/24 03:04:11;;;;;;;8.27;4.72;;;3.50;99.90;;;;;;495487;239;27377;-72
2021/04/24 03:06:12;;;;;;;5.65;4.10;;;3.40;99.90;;;;;;495465;239;27501;-71
2021/04/24 03:08:14;;;;;;;7.15;4.93;;;3.30;99.90;;;;;;495458;239;27358;-73
2021/04/24 03:10:15;;;;;;;8.90;4.85;;;3.20;99.90;;;;;;495469;239;27390;-72
2021/04/24 03:12:16;;;;;;;7.90;4.28;;;3.20;99.90;;;;;;495461;239;27421;-73
2021/04/24 03:14:17;;;;;;;5.68;3.90;;;3.20;99.90;;;;;;495460;239;27401;-73
2021/04/24 03:16:19;;;;;;;5.30;4.37;;;3.40;99.90;;;;;;495458;239;27476;-73
2021/04/24 03:18:20;;;;;;;8.73;4.30;;;3.50;99.90;;;;;;495470;239;27464;-72
2021/04/24 03:20:21;;;;;;;10.18;4.37;;;3.60;99.90;;;;;;495482;239;27825;-72
2021/04/24 03:22:22;;;;;;;6.82;4.85;;;3.40;99.90;;;;;;495491;239;27980;-72
2021/04/24 03:24:24;;;;;;;7.78;4.57;;;3.10;99.90;;;;;;495498;239;27785;-71
2021/04/24 03:26:25;;;;;;;6.65;4.55;;;2.90;99.90;;;;;;495396;239;27990;-73
2021/04/24 03:28:26;;;;;;;5.05;4.28;;;2.80;99.90;;;;;;495480;239;27346;-72
2021/04/24 03:30:27;;;;;;;6.05;4.53;;;2.90;99.90;;;;;;495479;239;27487;-71
2021/04/24 03:32:29;;;;;;;5.97;4.60;;;2.80;99.90;;;;;;495458;239;27416;-72
2021/04/24 03:34:30;;;;;;;6.40;4.75;;;2.90;99.90;;;;;;495461;239;27401;-72
2021/04/24 03:36:31;;;;;;;5.85;4.60;;;3.00;99.90;;;;;;495467;239;27474;-72
2021/04/24 03:38:32;;;;;;;10.35;4.60;;;3.20;99.90;;;;;;495467;239;27378;-71
2021/04/24 03:40:34;;;;;;;5.12;4.22;;;3.20;99.90;;;;;;495124;239;27390;-72
2021/04/24 03:42:35;;;;;;;8.27;4.37;;;3.10;99.90;;;;;;495481;239;27373;-73
2021/04/24 03:44:36;;;;;;;10.15;5.93;;;3.00;99.90;;;;;;495491;239;27362;-72
2021/04/24 03:46:37;;;;;;;7.45;4.55;;;3.10;99.90;;;;;;495442;239;27877;-72
2021/04/24 03:48:39;;;;;;;7.72;4.93;;;3.40;99.90;;;;;;495475;239;27828;-71
2021/04/24 03:50:40;;;;;;;9.75;5.40;;;3.50;99.90;;;;;;495449;239;27859;-72
2021/04/24 03:52:41;;;;;;;8.85;5.05;;;3.60;99.90;;;;;;495488;239;27418;-72
2021/04/24 03:54:42;;;;;;;6.53;4.62;;;3.60;99.90;;;;;;495508;239;27452;-71
2021/04/24 03:56:44;;;;;;;5.82;3.97;;;3.60;99.90;;;;;;495504;239;27395;-72
2021/04/24 03:58:45;;;;;;;7.70;4.72;;;3.50;99.90;;;;;;495528;239;27374;-72
2021/04/24 04:00:46;;;;;;;5.65;4.20;;;3.40;99.90;;;;;;495276;239;27405;-72
2021/04/24 04:02:47;;;;;;;12.57;5.93;;;3.40;99.90;;;;;;495493;239;27441;-71
2021/04/24 04:04:49;;;;;;;11.50;5.25;;;3.40;99.90;;;;;;495522;239;27383;-71
2021/04/24 04:06:50;;;;;;;6.25;4.40;;;3.60;99.90;;;;;;495556;239;27860;-72
2021/04/24 04:08:51;;;;;;;7.95;5.05;;;3.60;99.90;;;;;;495498;239;27908;-72
2021/04/24 04:10:52;;;;;;;10.27;6.15;;;3.70;99.90;;;;;;495488;239;27871;-72
2021/04/24 04:12:54;;;;;;;7.35;4.80;;;3.80;99.90;;;;;;495490;239;27370;-71
2021/04/24 04:14:55;;;;;;;7.85;5.37;;;3.70;99.90;;;;;;495503;239;27383;-72
2021/04/24 04:16:56;;;;;;;11.27;5.30;;;3.70;99.90;;;;;;495497;239;27393;-73
2021/04/24 04:18:57;;;;;;;8.30;5.30;;;3.90;99.90;;;;;;495511;239;27440;-71
2021/04/24 04:20:59;;;;;;;10.45;5.75;;;3.90;99.90;;;;;;495485;239;27450;-73
2021/04/24 04:23:00;;;;;;;13.68;6.80;;;3.90;99.90;;;;;;495489;239;27465;-72
2021/04/24 04:25:01;;;;;;;9.90;5.40;;;3.90;99.90;;;;;;495448;239;27921;-71
2021/04/24 04:27:02;;;;;;;5.65;4.90;;;3.90;99.90;;;;;;495515;239;27889;-72
2021/04/24 04:29:04;;;;;;;7.10;4.97;;;3.80;99.90;;;;;;495511;239;27838;-71
2021/04/24 04:31:05;;;;;;;8.95;5.75;;;3.90;99.90;;;;;;495509;239;27449;-71
2021/04/24 04:33:06;;;;;;;8.35;5.15;;;3.90;99.90;;;;;;495510;239;27354;-72
2021/04/24 04:35:07;;;;;;;10.73;5.50;;;4.00;99.90;;;;;;495504;239;27386;-73
2021/04/24 04:37:09;;;;;;;8.85;5.22;;;4.00;99.90;;;;;;495523;239;27397;-71
2021/04/24 04:39:10;;;;;;;7.72;5.70;;;3.90;99.90;;;;;;495513;239;27434;-71
2021/04/24 04:41:11;;;;;;;10.63;5.47;;;3.90;99.90;;;;;;495504;239;27492;-71
2021/04/24 04:43:12;;;;;;;7.62;4.80;;;3.80;99.90;;;;;;495518;239;27362;-71
2021/04/24 04:45:14;;;;;;;8.30;6.05;;;3.90;99.90;;;;;;495468;239;27393;-71
2021/04/24 04:47:15;;;;;;;8.43;6.07;;;3.90;99.90;;;;;;495484;239;27884;-73
2021/04/24 04:49:16;;;;;;;7.68;5.57;;;3.90;99.90;;;;;;495525;239;27912;-71
2021/04/24 04:51:17;;;;;;;11.95;8.02;;;4.00;99.90;;;;;;495502;239;27964;-71
2021/04/24 04:53:19;;;;;;;11.25;7.10;;;4.20;99.90;;;;;;495483;239;27409;-71
2021/04/24 04:55:20;;;;;;;13.77;7.72;;;4.30;99.90;;;;;;495494;239;27383;-71
2021/04/24 04:57:21;;;;;;;12.55;7.87;;;4.20;99.90;;;;;;495546;239;27751;-71
2021/04/24 04:59:23;;;;;;;14.38;7.47;;;4.30;99.90;;;;;;495532;239;27371;-71
2021/04/24 05:01:24;;;;;;;11.65;6.78;;;4.40;99.90;;;;;;495548;239;27459;-72
2021/04/24 05:03:25;;;;;;;10.48;6.75;;;4.50;99.90;;;;;;495543;239;27901;-71
2021/04/24 05:05:26;;;;;;;11.73;6.87;;;4.40;99.90;;;;;;495523;239;27909;-71
2021/04/24 05:07:28;;;;;;;12.63;7.57;;;4.50;99.90;;;;;;495539;239;27422;-73
2021/04/24 05:09:29;;;;;;;13.52;6.90;;;4.60;99.90;;;;;;495531;239;27354;-72
2021/04/24 05:11:30;;;;;;;15.80;8.02;;;4.60;99.90;;;;;;495519;239;27505;-72
2021/04/24 05:13:32;;;;;;;11.73;7.68;;;4.50;99.90;;;;;;495521;239;27373;-70
2021/04/24 05:15:33;;;;;;;12.07;7.00;;;4.50;99.90;;;;;;495515;239;27869;-70
2021/04/24 05:17:34;;;;;;;13.15;7.28;;;4.50;99.90;;;;;;495530;239;28051;-70
2021/04/24 05:19:35;;;;;;;9.05;6.30;;;4.50;99.90;;;;;;495539;239;27447;-70
2021/04/24 05:21:36;;;;;;;17.77;7.43;;;4.60;99.90;;;;;;495518;239;27393;-70
2021/04/24 05:23:38;;;;;;;10.95;7.12;;;4.60;99.90;;;;;;495494;239;27366;-72
2021/04/24 05:25:39;;;;;;;8.18;6.20;;;4.50;99.90;;;;;;495525;239;27484;-71
2021/04/24 05:27:44;;;;;;;10.60;6.97;;;4.60;99.90;;;;;;495501;239;27397;-71
2021/04/24 05:29:41;;;;;;;9.60;6.07;;;4.60;99.90;;;;;;495482;239;27807;-71
2021/04/24 05:31:43;;;;;;;10.45;6.78;;;4.80;99.90;;;;;;495497;239;27972;-71
2021/04/24 05:33:44;;;;;;;8.55;6.57;;;4.90;99.90;;;;;;495494;239;27346;-71
2021/04/24 05:35:45;;;;;;;10.90;7.22;;;4.90;99.90;;;;;;495476;239;27472;-71
2021/04/24 05:37:46;;;;;;;9.80;6.75;;;4.90;99.90;;;;;;495477;239;27378;-71
2021/04/24 05:39:48;;;;;;;14.40;8.77;;;4.90;99.90;;;;;;495515;239;27373;-71
2021/04/24 05:41:49;;;;;;;17.58;8.25;;;5.00;99.90;;;;;;495513;239;27413;-72
2021/04/24 05:43:50;;;;;;;9.68;6.82;;;5.20;99.90;;;;;;495493;239;27973;-71
2021/04/24 05:45:51;;;;;;;8.60;6.25;;;5.20;99.90;;;;;;495504;239;27859;-71
2021/04/24 05:47:53;;;;;;;10.13;6.75;;;5.20;99.90;;;;;;495509;239;27469;-71
2021/04/24 05:49:54;;;;;;;11.80;6.85;;;5.20;99.90;;;;;;495525;239;27362;-71
2021/04/24 05:51:55;;;;;;;8.15;6.00;;;5.10;99.90;;;;;;495519;239;27589;-72
2021/04/24 05:53:56;;;;;;;16.55;9.15;;;5.10;99.90;;;;;;495533;239;27430;-70
2021/04/24 05:55:58;;;;;;;11.98;8.23;;;5.40;99.90;;;;;;495503;239;27861;-71
2021/04/24 05:58:00;;;;;;;18.83;10.57;;;5.70;99.90;;;;;;495508;239;27789;-71
2021/04/24 06:00:00;;;;;;;15.00;8.93;;;5.80;99.90;;;;;;495482;239;27393;-71
2021/04/24 06:02:02;;;;;;;22.30;8.80;;;5.90;99.90;;;;;;495536;239;27444;-71
2021/04/24 06:04:03;;;;;;;15.80;7.82;;;6.00;99.90;;;;;;495513;239;27358;-71
2021/04/24 06:06:04;;;;;;;13.55;7.75;;;6.30;99.90;;;;;;495533;239;27476;-71
2021/04/24 06:08:05;;;;;;;17.30;8.20;;;6.30;99.90;;;;;;495527;239;29807;-71
2021/04/24 06:10:07;;;;;;;14.03;8.50;;;6.40;99.90;;;;;;495522;239;28660;-72
2021/04/24 06:12:08;;;;;;;14.70;9.03;;;6.40;99.90;;;;;;495537;239;28711;-73
2021/04/24 06:14:09;;;;;;;18.63;8.23;;;6.60;99.90;;;;;;495527;239;27590;-71
2021/04/24 06:16:13;;;;;;;12.37;7.73;;;6.60;99.90;;;;;;494920;239;27568;-71
2021/04/24 06:18:12;;;;;;;21.13;7.73;;;6.70;99.90;;;;;;495531;239;27842;-72
2021/04/24 06:20:13;;;;;;;14.10;7.57;;;6.70;99.90;;;;;;495554;239;27480;-72
2021/04/24 06:22:14;;;;;;;17.53;8.60;;;6.80;99.90;;;;;;495524;239;27579;-72
2021/04/24 06:24:15;;;;;;;12.30;7.07;;;6.80;99.90;;;;;;495480;239;27500;-72
2021/04/24 06:26:17;;;;;;;8.87;6.60;;;7.00;99.90;;;;;;495522;239;27864;-72
2021/04/24 06:28:18;;;;;;;14.83;7.27;;;7.00;99.90;;;;;;495530;239;27911;-72
2021/04/24 06:30:19;;;;;;;16.33;8.60;;;7.10;99.90;;;;;;495508;239;28241;-71
2021/04/24 06:32:20;;;;;;;15.23;7.67;;;7.10;99.90;;;;;;495529;239;28259;-72
2021/04/24 06:34:22;;;;;;;14.60;7.53;;;7.20;99.90;;;;;;495536;239;28386;-71
2021/04/24 06:36:23;;;;;;;13.37;7.97;;;7.20;99.90;;;;;;495480;239;27878;-72
2021/04/24 06:38:24;;;;;;;20.73;7.63;;;7.20;99.90;;;;;;495563;239;27919;-71
2021/04/24 06:40:25;;;;;;;13.20;8.47;;;7.20;99.90;;;;;;495541;239;27884;-72
2021/04/24 06:42:27;;;;;;;13.63;7.83;;;7.30;99.90;;;;;;495299;239;27721;-72
2021/04/24 06:44:28;;;;;;;15.60;8.27;;;7.30;99.90;;;;;;495527;239;27772;-71
2021/04/24 06:46:29;;;;;;;13.63;8.30;;;7.30;99.90;;;;;;495582;239;27921;-72
2021/04/24 06:48:30;;;;;;;13.50;7.70;;;7.30;99.90;;;;;;495548;239;27865;-71
2021/04/24 06:50:32;;;;;;;19.20;8.43;;;7.40;99.90;;;;;;495550;239;27938;-72
2021/04/24 06:52:33;;;;;;;13.60;8.30;;;7.40;99.90;;;;;;495517;239;27771;-72
2021/04/24 06:54:34;;;;;;;13.63;7.50;;;7.50;99.90;;;;;;495532;239;28034;-72
2021/04/24 06:56:35;;;;;;;13.43;8.10;;;7.70;99.90;;;;;;495526;239;28426;-72
2021/04/24 06:58:37;;;;;;;18.60;8.17;;;7.70;99.90;;;;;;495498;239;28289;-72
2021/04/24 07:00:38;;;;;;;17.60;7.13;;;7.80;99.90;;;;;;495503;239;27896;-72
2021/04/24 07:02:39;;;;;;;16.70;7.40;;;7.80;99.90;;;;;;482960;239;27777;-72
2021/04/24 07:04:40;;;;;;;13.27;7.60;;;7.90;99.90;;;;;;482317;245;27832;-73
2021/04/24 07:06:42;;;;;;;15.13;8.50;;;7.90;99.90;;;;;;482306;245;27919;-73
2021/04/24 07:08:43;;;;;;;14.20;7.67;;;8.00;99.90;;;;;;482286;246;28068;-71
2021/04/24 07:10:44;;;;;;;12.03;6.63;;;8.10;99.90;;;;;;482279;245;28012;-74
2021/04/24 07:12:46;;;;;;;12.03;7.13;;;8.10;99.90;;;;;;482313;245;27852;-71
2021/04/24 07:14:47;;;;;;;10.50;6.40;;;8.20;99.90;;;;;;482365;245;27946;-71
2021/04/24 07:16:48;;;;;;;17.83;7.93;;;8.20;99.90;;;;;;482356;245;28015;-72
2021/04/24 07:18:49;;;;;;;12.13;7.40;;;8.20;99.90;;;;;;482386;245;28441;-72
2021/04/24 07:20:50;;;;;;;14.67;8.00;;;8.30;99.90;;;;;;482346;245;28505;-72
2021/04/24 07:22:52;;;;;;;14.63;8.10;;;8.40;99.90;;;;;;482351;245;28388;-72
2021/04/24 07:24:53;;;;;;;10.87;7.40;;;8.50;99.90;;;;;;482305;245;27960;-72
2021/04/24 07:26:54;;;;;;;15.20;8.20;;;8.50;99.90;;;;;;482294;245;27868;-72
2021/04/24 07:28:55;;;;;;;12.70;7.07;;;8.60;99.90;;;;;;482312;246;27989;-72
2021/04/24 07:30:57;;;;;;;10.33;6.60;;;8.60;99.90;;;;;;482306;246;27876;-71
2021/04/24 07:32:58;;;;;;;11.20;6.83;;;8.70;99.90;;;;;;482331;245;27888;-72
2021/04/24 07:35:00;;;;;;;17.03;7.30;;;8.70;99.90;;;;;;482291;245;27890;-72
2021/04/24 07:37:00;;;;;;;12.00;6.90;;;8.80;99.90;;;;;;482346;246;27945;-72
2021/04/24 07:39:02;;;;;;;14.50;7.10;;;8.90;99.90;;;;;;482290;246;27925;-72
2021/04/24 07:41:03;;;;;;;11.17;6.47;;;9.00;99.90;;;;;;482274;246;27799;-72
2021/04/24 07:43:04;;;;;;;10.33;6.53;;;9.00;99.90;;;;;;482309;246;28378;-72
2021/04/24 07:45:05;;;;;;;13.73;7.23;;;9.10;99.90;;;;;;482271;245;28306;-72
2021/04/24 07:47:08;;;;;;;10.20;6.37;;;9.30;99.90;;;;;;482283;245;27982;-73
2021/04/24 07:49:08;;;;;;;15.60;6.80;;;9.50;99.90;;;;;;482191;246;27764;-72
2021/04/24 07:51:09;;;;;;;12.00;6.50;;;9.50;99.90;;;;;;482299;245;27996;-72
2021/04/24 07:53:10;;;;;;;14.87;7.20;;;9.50;99.90;;;;;;482272;245;27889;-72
2021/04/24 07:55:12;;;;;;;9.57;6.77;;;9.60;99.90;;;;;;482273;245;28049;-72
2021/04/24 07:57:13;;;;;;;15.30;7.17;;;9.70;99.90;;;;;;482347;245;27932;-72
2021/04/24 07:59:14;;;;;;;13.07;7.40;;;9.80;99.90;;;;;;482332;246;27864;-72
2021/04/24 08:01:15;;;;;;;12.70;7.03;;;9.90;99.90;;;;;;482370;246;28603;-73
2021/04/24 08:03:17;;;;;;;9.90;6.50;;;10.10;99.90;;;;;;482376;246;28448;-72
2021/04/24 08:05:18;;;;;;;11.93;6.50;;;9.90;99.90;;;;;;482328;246;28298;-72
2021/04/24 08:07:19;;;;;;;13.90;7.07;;;9.90;99.90;;;;;;482385;245;28040;-73
2021/04/24 08:09:20;;;;;;;11.27;6.70;;;10.10;99.90;;;;;;482388;245;28014;-72
2021/04/24 08:11:22;;;;;;;10.40;6.93;;;10.10;99.90;;;;;;482358;245;28162;-73
2021/04/24 08:13:23;;;;;;;12.10;6.83;;;10.00;99.90;;;;;;482335;245;27995;-72
2021/04/24 08:15:26;;;;;;;12.33;6.20;;;10.20;99.90;;;;;;482303;245;28093;-72
2021/04/24 08:17:26;;;;;;;12.97;6.70;;;10.30;99.90;;;;;;482301;245;27891;-72
2021/04/24 08:19:28;;;;;;;11.63;6.90;;;10.30;99.90;;;;;;482364;245;29249;-72
2021/04/24 08:21:29;;;;;;;12.67;6.50;;;10.50;99.90;;;;;;480535;245;28526;-72
2021/04/24 08:23:30;;;;;;;12.63;6.70;;;10.50;99.90;;;;;;482373;245;28536;-72
2021/04/24 08:25:31;;;;;;;11.27;6.10;;;10.50;99.90;;;;;;482387;245;27889;-72
2021/04/24 08:27:32;;;;;;;11.33;7.00;;;10.50;99.90;;;;;;482304;245;28306;-72
2021/04/24 08:29:34;;;;;;;12.90;7.30;;;10.80;99.90;;;;;;482332;245;28126;-72
2021/04/24 08:31:35;;;;;;;11.20;6.60;;;10.80;99.90;;;;;;482322;245;28298;-73
2021/04/24 08:33:36;;;;;;;12.20;6.87;;;10.80;99.90;;;;;;482268;245;28168;-72
2021/04/24 08:35:37;;;;;;;11.17;6.30;;;10.80;99.90;;;;;;482321;245;28188;-72
2021/04/24 08:37:39;;;;;;;11.17;6.77;;;10.90;99.90;;;;;;482337;246;28681;-72
2021/04/24 08:39:40;;;;;;;11.07;6.60;;;11.00;99.90;;;;;;482337;246;28741;-72
2021/04/24 08:41:41;;;;;;;10.67;6.70;;;10.90;99.90;;;;;;482326;245;28691;-72
2021/04/24 08:43:42;;;;;;;11.50;6.27;;;10.80;99.90;;;;;;482344;245;28459;-72
2021/04/24 08:45:44;;;;;;;9.30;6.00;;;10.80;99.90;;;;;;482318;245;28236;-72
2021/04/24 08:47:45;;;;;;;21.77;6.83;;;10.90;99.90;;;;;;482325;245;28151;-72
2021/04/24 08:49:46;;;;;;;21.50;7.60;;;11.20;99.90;;;;;;482329;245;28142;-72
2021/04/24 08:51:47;;;;;;;14.00;6.53;;;11.30;99.90;;;;;;482379;246;28197;-72
2021/04/24 08:53:49;;;;;;;9.27;5.97;;;11.50;99.90;;;;;;482383;245;28369;-75
2021/04/24 08:55:50;;;;;;;13.90;6.30;;;11.30;99.90;;;;;;482381;246;28247;-72
2021/04/24 08:57:51;;;;;;;12.90;7.13;;;11.60;99.90;;;;;;482366;245;28978;-73
2021/04/24 08:59:52;;;;;;;9.37;6.07;;;11.80;99.90;;;;;;482348;245;28657;-72
2021/04/24 09:01:54;;;;;;;9.33;6.53;;;11.80;99.90;;;;;;482311;246;28374;-73
2021/04/24 09:03:55;;;;;;;13.03;6.23;;;12.00;99.90;;;;;;482341;245;28240;-74
2021/04/24 09:05:56;;;;;;;6.47;4.83;;;12.00;99.90;;;;;;482281;246;28351;-72
2021/04/24 09:07:58;;;;;;;7.80;5.37;;;11.90;99.90;;;;;;482318;245;28336;-72
2021/04/24 09:09:59;;;;;;;9.60;5.37;;;12.00;99.90;;;;;;482301;245;28323;-72
2021/04/24 09:12:03;;;;;;;14.03;6.20;;;12.10;99.90;;;;;;482282;245;28854;-72
2021/04/24 09:14:04;;;;;;;10.00;6.10;;;12.10;99.90;;;;;;482307;245;29168;-72
2021/04/24 09:16:06;;;;;;;8.00;5.70;;;12.10;99.90;;;;;;482380;245;28796;-72
2021/04/24 09:18:07;;;;;;;10.83;6.50;;;12.00;99.90;;;;;;482337;245;28705;-72
2021/04/24 09:20:08;;;;;;;20.07;7.00;;;12.10;99.90;;;;;;482331;245;28741;-72
2021/04/24 09:22:09;;;;;;;19.93;6.53;;;12.20;99.90;;;;;;482353;245;29430;-72
2021/04/24 09:24:11;;;;;;;9.47;6.23;;;12.30;99.50;;;;;;482378;245;28096;-72
2021/04/24 09:26:15;;;;;;;11.60;6.00;;;12.40;99.60;;;;;;482380;245;28154;-72
2021/04/24 09:28:16;;;;;;;11.87;6.20;;;12.40;97.00;;;;;;482338;245;29198;-72
2021/04/24 09:30:17;;;;;;;13.50;6.10;;;12.30;95.80;;;;;;482349;245;28561;-72
2021/04/24 09:32:18;;;;;;;14.90;6.13;;;12.40;97.30;;;;;;482342;245;28218;-72
2021/04/24 09:34:20;;;;;;;8.97;5.53;;;12.60;97.30;;;;;;482147;245;28263;-72
2021/04/24 09:36:23;;;;;;;10.80;6.13;;;;;;;;;;482347;246;28279;-73
2021/04/24 09:38:23;;;;;;;14.47;6.20;;;12.60;97.80;;;;;;482308;246;27078;-72
2021/04/24 09:40:25;;;;;;;9.50;6.00;;;12.90;95.80;;;;;;482394;245;28613;-72
2021/04/24 09:42:26;;;;;;;9.87;5.37;;;12.90;93.80;;;;;;482322;246;29427;-72
2021/04/24 09:44:27;;;;;;;13.10;6.47;;;12.70;95.10;;;;;;482359;245;28226;-72
2021/04/24 09:46:28;;;;;;;11.30;6.13;;;12.90;96.50;;;;;;482322;245;28136;-72
2021/04/24 09:48:30;;;;;;;8.40;5.70;;;12.90;95.60;;;;;;482279;245;28212;-73
2021/04/24 09:50:31;;;;;;;10.00;5.23;;;12.80;96.60;;;;;;482301;246;28424;-72
2021/04/24 09:52:32;;;;;;;11.77;6.50;;;12.90;96.20;;;;;;482309;246;28353;-72
2021/04/24 09:54:34;;;;;;;15.67;6.30;;;12.90;96.60;;;;;;482303;245;28324;-72
2021/04/24 09:56:35;;;;;;;8.60;4.80;;;13.10;95.60;;;;;;482274;245;28143;-72
2021/04/24 09:58:38;;;;;;;8.10;5.40;;;12.80;96.70;;;;;;482254;246;28836;-72
2021/04/24 10:00:37;;;;;;;12.10;6.00;;;13.20;95.70;;;;;;482221;245;28707;-72
2021/04/24 10:02:39;;;;;;;11.53;6.40;;;13.10;94.30;;;;;;482188;245;28885;-72
2021/04/24 10:04:40;;;;;;;12.33;6.70;;;13.30;92.80;;;;;;482247;246;28229;-73
2021/04/24 10:06:41;;;;;;;9.07;5.07;;;13.30;92.10;;;;;;482281;245;28477;-72
2021/04/24 10:08:42;;;;;;;8.63;5.30;;;13.00;92.10;;;;;;482270;245;28212;-72
2021/04/24 10:10:43;;;;;;;15.07;5.80;;;12.90;93.30;;;;;;482298;245;28225;-72
2021/04/24 10:12:45;;;;;;;11.00;5.43;;;13.20;93.10;;;;;;482297;245;28774;-72
2021/04/24 10:14:48;;;;;;;10.10;6.10;;;13.00;93.80;;;;;;482290;245;28454;-72
2021/04/24 10:16:47;;;;;;;12.50;5.83;;;13.20;92.50;;;;;;482254;245;28913;-74
2021/04/24 10:18:48;;;;;;;9.70;6.20;;;13.20;93.30;;;;;;482337;245;28801;-72
2021/04/24 10:20:50;;;;;;;11.87;5.50;;;13.30;92.60;;;;;;482323;245;28954;-72
2021/04/24 10:22:51;;;;;;;9.20;5.00;;;13.30;92.60;;;;;;482314;246;28412;-73
2021/04/24 10:24:52;;;;;;;7.60;5.50;;;13.60;92.00;;;;;;482366;245;28443;-72
2021/04/24 10:26:54;;;;;;;9.13;4.90;;;13.40;91.80;;;;;;482344;245;28592;-75
2021/04/24 10:28:55;;;;;;;10.27;5.80;;;13.50;91.70;;;;;;482311;245;28452;-72
2021/04/24 10:30:56;;;;;;;9.10;5.67;;;13.30;91.80;;;;;;482322;246;28348;-72
2021/04/24 10:32:57;;;;;;;8.03;5.67;;;13.10;93.50;;;;;;482297;245;28765;-72